createdAt,value
2022-08-20T00:02:51.867Z,9.43
2022-08-20T00:06:03.890Z,12.73
2022-08-20T00:12:07.941Z,10.07
2022-08-20T00:15:09.899Z,9.13
2022-08-20T00:21:19.029Z,11.45
2022-08-20T00:24:20.813Z,9.85
2022-08-20T00:27:22.279Z,9.77
2022-08-20T00:30:24.958Z,8.80
2022-08-20T00:33:26.458Z,11.05
2022-08-20T00:36:32.787Z,12.02
2022-08-20T00:39:35.092Z,10.25
2022-08-20T00:42:45.340Z,8.95
2022-08-20T00:45:46.776Z,9.52
2022-08-20T00:48:52.076Z,9.93
2022-08-20T00:52:05.917Z,8.95
2022-08-20T00:55:08.371Z,10.23
2022-08-20T00:58:09.912Z,10.07
2022-08-20T01:01:11.996Z,11.40
2022-08-20T01:04:13.432Z,10.15
2022-08-20T01:07:14.965Z,10.57
2022-08-20T01:10:19.693Z,12.77
2022-08-20T01:13:23.889Z,11.95
2022-08-20T01:16:31.301Z,12.20
2022-08-20T01:19:40.952Z,12.30
2022-08-20T01:23:08.702Z,13.65
2022-08-20T01:26:10.103Z,12.68
2022-08-20T01:29:25.647Z,12.63
2022-08-20T01:32:27.187Z,13.00
2022-08-20T01:35:28.875Z,12.95
2022-08-20T01:38:30.732Z,13.85
2022-08-20T01:42:09.929Z,12.20
2022-08-20T01:45:11.404Z,11.70
2022-08-20T01:48:15.483Z,13.40
2022-08-20T01:51:23.468Z,10.20
2022-08-20T01:54:26.072Z,11.23
2022-08-20T01:57:27.826Z,13.00
2022-08-20T02:03:34.811Z,11.85
2022-08-20T02:06:43.286Z,13.98
2022-08-20T02:09:59.080Z,11.10
2022-08-20T02:13:01.167Z,14.30
2022-08-20T02:16:02.968Z,13.63
2022-08-20T02:19:13.105Z,12.13
2022-08-20T02:22:23.337Z,13.75
2022-08-20T02:25:28.777Z,12.50
2022-08-20T02:28:34.403Z,11.88
2022-08-20T02:31:36.947Z,12.88
2022-08-20T02:34:45.182Z,11.88
2022-08-20T02:37:47.278Z,15.35
2022-08-20T02:40:49.990Z,15.13
2022-08-20T02:43:51.509Z,13.52
2022-08-20T02:46:52.997Z,14.57
2022-08-20T02:49:55.103Z,14.45
2022-08-20T02:52:56.627Z,15.25
2022-08-20T02:55:59.080Z,13.52
2022-08-20T02:59:00.835Z,13.57
2022-08-20T03:02:02.323Z,16.13
2022-08-20T03:05:04.574Z,15.32
2022-08-20T03:08:08.369Z,15.65
2022-08-20T03:11:10.436Z,13.80
2022-08-20T03:14:11.932Z,16.30
2022-08-20T03:17:13.499Z,16.75
2022-08-20T03:20:15.468Z,15.07
2022-08-20T03:26:19.687Z,14.48
2022-08-20T03:29:21.155Z,13.40
2022-08-20T03:32:22.883Z,14.38
2022-08-20T03:35:27.561Z,14.10
2022-08-20T03:38:33.022Z,16.63
2022-08-20T03:41:35.061Z,12.80
2022-08-20T03:44:36.742Z,14.85
2022-08-20T03:47:40.970Z,13.07
2022-08-20T03:50:43.855Z,12.05
2022-08-20T03:53:45.330Z,13.57
2022-08-20T03:56:47.278Z,17.98
2022-08-20T04:03:00.820Z,13.27
2022-08-20T04:06:02.396Z,12.48
2022-08-20T04:09:04.737Z,15.20
2022-08-20T04:12:07.462Z,15.18
2022-08-20T04:15:12.318Z,14.02
2022-08-20T04:18:14.817Z,13.98
2022-08-20T04:21:16.449Z,13.75
2022-08-20T04:24:27.541Z,16.55
2022-08-20T04:27:34.084Z,15.15
2022-08-20T04:30:35.746Z,14.75
2022-08-20T04:33:37.245Z,16.77
2022-08-20T04:36:38.969Z,13.63
2022-08-20T04:39:40.450Z,14.38
2022-08-20T04:42:45.080Z,12.98
2022-08-20T04:45:47.867Z,15.60
2022-08-20T04:48:50.361Z,13.40
2022-08-20T04:51:53.013Z,15.65
2022-08-20T04:54:56.472Z,13.25
2022-08-20T04:58:16.570Z,14.15
2022-08-20T05:01:18.528Z,12.68
2022-08-20T05:04:20.048Z,12.63
2022-08-20T05:07:21.515Z,12.90
2022-08-20T05:10:23.638Z,13.35
2022-08-20T05:13:27.552Z,13.43
2022-08-20T05:16:29.644Z,12.45
2022-08-20T05:19:38.335Z,14.88
2022-08-20T05:22:40.457Z,14.05
2022-08-20T05:25:44.383Z,14.80
2022-08-20T05:28:49.972Z,14.48
2022-08-20T05:31:59.865Z,16.48
2022-08-20T05:35:03.001Z,14.60
2022-08-20T05:38:11.722Z,13.93
2022-08-20T05:41:13.166Z,13.57
2022-08-20T05:44:31.453Z,15.13
2022-08-20T05:47:33.427Z,15.90
2022-08-20T05:50:43.354Z,16.92
2022-08-20T05:53:45.006Z,17.15
2022-08-20T05:56:46.504Z,14.95
2022-08-20T05:59:48.192Z,14.20
2022-08-20T06:03:28.193Z,14.52
2022-08-20T06:06:44.813Z,14.00
2022-08-20T06:09:48.981Z,13.48
2022-08-20T06:12:53.279Z,15.40
2022-08-20T06:15:56.224Z,14.30
2022-08-20T06:18:59.995Z,15.45
2022-08-20T06:22:17.643Z,12.65
2022-08-20T06:25:22.171Z,14.95
2022-08-20T06:28:24.353Z,13.70
2022-08-20T06:31:27.380Z,14.77
2022-08-20T06:34:30.950Z,10.68
2022-08-20T06:37:36.519Z,11.15
2022-08-20T06:40:38.986Z,11.73
2022-08-20T06:43:40.617Z,14.55
2022-08-20T06:46:43.354Z,14.65
2022-08-20T06:49:44.935Z,12.80
2022-08-20T06:52:52.992Z,13.52
2022-08-20T06:55:58.027Z,11.30
2022-08-20T06:58:59.735Z,10.25
2022-08-20T07:02:01.199Z,12.00
2022-08-20T07:05:05.180Z,14.32
2022-08-20T07:08:09.269Z,10.93
2022-08-20T07:11:12.130Z,11.02
2022-08-20T07:14:14.537Z,9.43
2022-08-20T07:17:15.985Z,12.18
2022-08-20T07:20:17.846Z,11.70
2022-08-20T07:23:19.301Z,10.32
2022-08-20T07:26:20.749Z,12.50
2022-08-20T07:29:22.228Z,12.80
2022-08-20T07:32:36.937Z,11.15
2022-08-20T07:35:42.034Z,12.00
2022-08-20T07:38:46.726Z,11.52
2022-08-20T07:42:02.867Z,13.50
2022-08-20T07:45:06.053Z,11.32
2022-08-20T07:48:09.831Z,12.95
2022-08-20T07:51:12.069Z,9.98
2022-08-20T07:54:13.516Z,10.30
2022-08-20T07:57:17.195Z,13.27
2022-08-20T08:00:21.972Z,12.68
2022-08-20T08:03:48.901Z,10.05
2022-08-20T08:06:45.355Z,11.00
2022-08-20T08:09:48.546Z,11.85
2022-08-20T08:12:54.820Z,9.40
2022-08-20T08:15:58.046Z,10.73
2022-08-20T08:19:01.911Z,12.50
2022-08-20T08:22:04.954Z,13.63
2022-08-20T08:25:06.612Z,7.05
2022-08-20T08:28:11.992Z,4.50
2022-08-20T08:31:14.911Z,5.57
2022-08-20T08:34:17.350Z,5.75
2022-08-20T08:37:19.115Z,7.07
2022-08-20T08:40:22.348Z,8.88
2022-08-20T08:43:27.276Z,8.20
2022-08-20T08:46:40.242Z,10.27
2022-08-20T08:49:43.074Z,8.18
2022-08-20T08:52:46.027Z,7.50
2022-08-20T08:55:47.919Z,9.98
2022-08-20T09:01:57.317Z,7.20
2022-08-20T09:05:01.919Z,10.00
2022-08-20T09:08:09.326Z,8.25
2022-08-20T09:11:12.392Z,7.55
2022-08-20T09:14:13.933Z,6.68
2022-08-20T09:17:17.011Z,6.95
2022-08-20T09:20:19.050Z,6.00
2022-08-20T09:23:20.528Z,5.80
2022-08-20T09:26:22.073Z,5.57
2022-08-20T09:29:32.537Z,5.80
2022-08-20T09:32:34.379Z,5.22
2022-08-20T09:35:36.411Z,7.72
2022-08-20T09:38:37.897Z,6.63
2022-08-20T09:41:39.380Z,6.13
2022-08-20T09:44:41.373Z,7.25
2022-08-20T09:50:58.266Z,6.35
2022-08-20T09:53:59.997Z,12.77
2022-08-20T09:57:07.052Z,8.35
2022-08-20T10:00:12.168Z,6.45
2022-08-20T10:03:14.404Z,6.18
2022-08-20T10:06:20.065Z,7.70
2022-08-20T10:09:21.835Z,5.82
2022-08-20T10:12:23.297Z,7.80
2022-08-20T10:15:24.829Z,6.57
2022-08-20T10:18:26.405Z,5.43
2022-08-20T10:21:29.438Z,6.18
2022-08-20T10:24:31.432Z,7.45
2022-08-20T10:27:33.067Z,7.57
2022-08-20T10:30:35.121Z,6.07
2022-08-20T10:33:37.928Z,6.88
2022-08-20T10:36:42.266Z,8.18
2022-08-20T10:39:44.810Z,6.93
2022-08-20T10:42:46.485Z,9.02
2022-08-20T10:45:48.478Z,8.07
2022-08-20T10:51:51.560Z,8.63
2022-08-20T10:54:53.984Z,6.20
2022-08-20T10:57:55.725Z,6.45
2022-08-20T11:00:57.295Z,7.47
2022-08-20T11:04:02.084Z,5.82
2022-08-20T11:07:22.133Z,8.80
2022-08-20T11:10:43.854Z,7.00
2022-08-20T11:13:45.586Z,7.35
2022-08-20T11:16:47.157Z,8.68
2022-08-20T11:19:48.700Z,6.50
2022-08-20T11:22:50.844Z,7.95
2022-08-20T11:25:52.369Z,6.97
2022-08-20T11:28:53.814Z,6.90
2022-08-20T11:31:55.619Z,7.47
2022-08-20T11:38:01.084Z,8.37
2022-08-20T11:41:02.832Z,7.95
2022-08-20T11:44:21.016Z,7.70
2022-08-20T11:47:26.633Z,6.18
2022-08-20T11:50:28.243Z,8.50
2022-08-20T11:53:29.719Z,6.50
2022-08-20T11:56:33.317Z,6.93
2022-08-20T11:59:35.049Z,5.50
2022-08-20T12:02:37.037Z,5.80
2022-08-20T12:05:41.145Z,6.15
2022-08-20T12:08:42.677Z,6.68
2022-08-20T12:11:46.063Z,5.82
2022-08-20T12:14:47.920Z,5.72
2022-08-20T12:17:49.411Z,6.90
2022-08-20T12:20:51.013Z,5.15
2022-08-20T12:23:52.716Z,4.25
2022-08-20T12:26:54.201Z,3.78
2022-08-20T12:29:58.146Z,4.90
2022-08-20T12:33:00.535Z,3.95
2022-08-20T12:36:02.308Z,3.15
2022-08-20T12:39:03.822Z,3.70
2022-08-20T12:42:06.243Z,1.88
2022-08-20T12:45:08.408Z,4.10
2022-08-20T12:48:12.460Z,3.78
2022-08-20T12:51:13.913Z,4.65
2022-08-20T12:54:15.370Z,4.10
2022-08-20T12:57:28.669Z,6.35
2022-08-20T13:00:43.171Z,6.78
2022-08-20T13:03:45.141Z,4.47
2022-08-20T13:06:47.377Z,3.53
2022-08-20T13:09:48.994Z,3.85
2022-08-20T13:12:50.836Z,3.53
2022-08-20T13:15:52.394Z,3.55
2022-08-20T13:18:53.868Z,4.20
2022-08-20T13:21:55.473Z,3.95
2022-08-20T13:24:56.900Z,3.22
2022-08-20T13:28:00.508Z,6.93
2022-08-20T13:31:02.204Z,3.33
2022-08-20T13:37:16.302Z,4.05
2022-08-20T13:40:18.463Z,3.42
2022-08-20T13:43:19.962Z,2.97
2022-08-20T13:46:21.469Z,3.22
2022-08-20T13:49:22.925Z,5.47
2022-08-20T13:52:25.659Z,2.45
2022-08-20T13:55:28.937Z,2.25
2022-08-20T13:58:32.343Z,2.65
2022-08-20T14:01:34.078Z,2.67
2022-08-20T14:07:37.972Z,3.20
2022-08-20T14:10:39.840Z,4.78
2022-08-20T14:13:44.248Z,2.90
2022-08-20T14:16:45.712Z,2.78
2022-08-20T14:19:49.358Z,3.63
2022-08-20T14:22:50.885Z,6.45
2022-08-20T14:25:52.396Z,2.90
2022-08-20T14:28:54.068Z,2.78
2022-08-20T14:34:59.156Z,3.08
2022-08-20T14:38:00.702Z,5.18
2022-08-20T14:41:03.030Z,4.53
2022-08-20T14:47:18.078Z,2.05
2022-08-20T14:50:23.540Z,3.67
2022-08-20T14:53:25.011Z,3.00
2022-08-20T14:56:26.550Z,2.38
2022-08-20T14:59:28.134Z,2.67
2022-08-20T15:02:31.019Z,2.97
2022-08-20T15:05:33.288Z,2.03
2022-08-20T15:08:34.859Z,4.30
2022-08-20T15:11:39.128Z,3.33
2022-08-20T15:14:40.819Z,3.17
2022-08-20T15:17:52.313Z,2.03
2022-08-20T15:20:53.843Z,4.45
2022-08-20T15:23:55.401Z,4.70
2022-08-20T15:26:56.860Z,3.38
2022-08-20T15:29:58.437Z,3.78
2022-08-20T15:33:00.470Z,3.85
2022-08-20T15:36:03.027Z,4.10
2022-08-20T15:39:04.773Z,5.68
2022-08-20T15:45:08.940Z,5.13
2022-08-20T15:48:17.167Z,3.88
2022-08-20T15:51:28.738Z,3.80
2022-08-20T15:54:30.303Z,5.75
2022-08-20T15:57:34.380Z,3.60
2022-08-20T16:00:53.954Z,3.20
2022-08-20T16:04:25.748Z,4.10
2022-08-20T16:07:54.810Z,5.30
2022-08-20T16:11:17.411Z,5.00
2022-08-20T16:14:23.155Z,5.65
2022-08-20T16:17:32.215Z,35.28
2022-08-20T16:20:47.924Z,24.88
2022-08-20T16:23:49.667Z,29.75
2022-08-20T16:27:25.353Z,14.68
2022-08-20T16:30:47.182Z,6.10
2022-08-20T16:34:10.498Z,5.45
2022-08-20T16:37:41.997Z,5.50
2022-08-20T16:40:49.595Z,5.50
2022-08-20T16:43:55.929Z,5.80
2022-08-20T16:47:22.347Z,5.03
2022-08-20T16:50:29.002Z,4.57
2022-08-20T16:53:32.664Z,4.68
2022-08-20T16:56:35.772Z,4.90
2022-08-20T16:59:54.739Z,13.15
2022-08-20T17:03:03.330Z,5.43
2022-08-20T17:06:16.645Z,7.43
2022-08-20T17:09:37.506Z,14.18
2022-08-20T17:12:39.005Z,10.40
2022-08-20T17:15:44.124Z,11.27
2022-08-20T17:18:53.651Z,8.60
2022-08-20T17:21:56.381Z,5.13
2022-08-20T17:24:58.025Z,7.65
2022-08-20T17:31:03.672Z,7.43
2022-08-20T17:34:05.479Z,8.30
2022-08-20T17:37:20.165Z,8.02
2022-08-20T17:40:33.672Z,8.02
2022-08-20T17:43:35.390Z,5.20
2022-08-20T17:46:48.081Z,11.57
2022-08-20T17:50:02.853Z,11.60
2022-08-20T17:53:23.163Z,12.50
2022-08-20T17:56:36.910Z,9.65
2022-08-20T18:00:02.815Z,11.68
2022-08-20T18:03:19.704Z,8.93
2022-08-20T18:07:06.891Z,7.05
2022-08-20T18:10:20.771Z,7.60
2022-08-20T18:13:50.128Z,8.45
2022-08-20T18:17:15.235Z,7.60
2022-08-20T18:20:41.852Z,5.75
2022-08-20T18:23:52.547Z,7.05
2022-08-20T18:27:01.036Z,5.13
2022-08-20T18:30:02.863Z,7.78
2022-08-20T18:33:07.935Z,10.18
2022-08-20T18:36:22.535Z,10.25
2022-08-20T18:39:39.620Z,7.55
2022-08-20T18:42:41.199Z,13.05
2022-08-20T18:45:42.877Z,10.30
2022-08-20T18:48:58.263Z,9.50
2022-08-20T18:52:11.152Z,8.48
2022-08-20T18:55:31.553Z,9.27
2022-08-20T18:58:32.969Z,9.68
2022-08-20T19:01:37.117Z,8.75
2022-08-20T19:04:38.817Z,10.93
2022-08-20T19:07:50.509Z,7.50
2022-08-20T19:10:55.116Z,7.82
2022-08-20T19:14:37.079Z,6.80
2022-08-20T19:18:09.243Z,6.78
2022-08-20T19:21:16.003Z,9.05
2022-08-20T19:24:24.559Z,8.07
2022-08-20T19:27:28.350Z,10.10
2022-08-20T19:30:37.809Z,8.35
2022-08-20T19:33:44.371Z,7.72
2022-08-20T19:36:46.466Z,9.07
2022-08-20T19:42:51.438Z,8.73
2022-08-20T19:45:55.854Z,6.63
2022-08-20T19:49:16.250Z,8.65
2022-08-20T19:52:28.276Z,8.85
2022-08-20T19:58:36.329Z,9.77
2022-08-20T20:01:37.850Z,9.02
2022-08-20T20:04:54.837Z,7.53
2022-08-20T20:07:58.644Z,12.00
2022-08-20T20:11:00.994Z,9.95
2022-08-20T20:14:10.387Z,8.00
2022-08-20T20:17:21.063Z,7.30
2022-08-20T20:20:31.439Z,10.00
2022-08-20T20:23:45.822Z,6.82
2022-08-20T20:26:49.477Z,7.55
2022-08-20T20:30:00.260Z,10.82
2022-08-20T20:33:15.781Z,9.35
2022-08-20T20:36:29.849Z,10.52
2022-08-20T20:39:38.485Z,11.70
2022-08-20T20:42:41.273Z,11.98
2022-08-20T20:45:46.337Z,11.27
2022-08-20T20:48:56.900Z,12.23
2022-08-20T20:52:14.971Z,11.30
2022-08-20T20:55:29.607Z,11.27
2022-08-20T20:58:31.140Z,13.85
2022-08-20T21:01:48.353Z,13.15
2022-08-20T21:04:52.324Z,14.05
2022-08-20T21:11:03.181Z,8.90
2022-08-20T21:14:04.818Z,9.52
2022-08-20T21:17:09.199Z,9.60
2022-08-20T21:20:11.446Z,17.45
2022-08-20T21:23:13.274Z,9.50
2022-08-20T21:26:14.874Z,8.30
2022-08-20T21:29:22.781Z,8.82
2022-08-20T21:32:24.260Z,8.82
2022-08-20T21:35:26.112Z,9.98
2022-08-20T21:38:28.179Z,9.13
2022-08-20T21:47:34.138Z,7.72
2022-08-20T21:50:35.779Z,12.45
2022-08-20T21:53:37.229Z,8.63
2022-08-20T21:56:39.355Z,8.40
2022-08-20T21:59:41.399Z,8.75
2022-08-20T22:02:43.109Z,9.95
2022-08-20T22:05:44.839Z,6.78
2022-08-20T22:08:46.303Z,17.27
2022-08-20T22:11:53.881Z,8.30
2022-08-20T22:14:56.177Z,6.63
2022-08-20T22:17:57.664Z,8.57
2022-08-20T22:20:59.755Z,7.35
2022-08-20T22:24:04.768Z,8.82
2022-08-20T22:27:07.163Z,8.48
2022-08-20T22:30:09.616Z,9.40
2022-08-20T22:33:14.199Z,7.05
2022-08-20T22:36:15.968Z,6.95
2022-08-20T22:39:17.416Z,6.28
2022-08-20T22:42:18.962Z,9.98
2022-08-20T22:45:20.597Z,7.35
2022-08-20T22:48:22.129Z,8.27
2022-08-20T22:51:28.750Z,6.45
2022-08-20T22:54:32.002Z,9.68
2022-08-20T22:57:34.375Z,7.57
2022-08-20T23:00:36.393Z,7.15
2022-08-20T23:03:40.174Z,6.32
2022-08-20T23:06:41.928Z,8.65
2022-08-20T23:09:44.382Z,6.78
2022-08-20T23:12:45.918Z,8.43
2022-08-20T23:15:47.452Z,7.75
2022-08-20T23:18:48.958Z,7.03
2022-08-20T23:21:51.512Z,7.78
2022-08-20T23:24:55.351Z,5.72
2022-08-20T23:28:04.079Z,6.50
2022-08-20T23:31:06.289Z,7.18
2022-08-20T23:34:08.165Z,9.38
2022-08-20T23:37:10.241Z,8.68
2022-08-20T23:43:14.499Z,9.13
2022-08-20T23:46:16.508Z,7.97
2022-08-20T23:52:19.640Z,7.97
2022-08-20T23:55:22.798Z,7.32
2022-08-20T23:58:24.256Z,6.15
